Terminal Aerodrome Forecast
Issued by NWS

Home | Current Version | Previous Version | Text Only | Print | Product List | Glossary On
Versions: 1 2 3 4 5 6 7 8 9 10 11 12
487
FTUS46 KSTO 041733
TAFRDD
TAF
KRDD 041733Z 0418/0518 VRB03KT P6SM FEW060 BKN200
     FM042200 18004KT P6SM BKN050
     FM050600 34004KT P6SM SCT050=

USA.gov is the U.S. government's official web portal to all federal, state and local government web resources and services.